sensor_id;sensor_type;location;lat;lon;timestamp;pressure;altitude;pressure_sealevel;temperature;humidity
70323;BME280;57735;56.264;43.898;2022-10-16T00:02:28;101979.31;;;3.91;73.31
70323;BME280;57735;56.264;43.898;2022-10-16T00:04:59;101972.31;;;3.90;73.13
70323;BME280;57735;56.264;43.898;2022-10-16T00:07:29;101965.41;;;3.87;73.24
70323;BME280;57735;56.264;43.898;2022-10-16T00:10:00;101966.34;;;3.86;73.36
70323;BME280;57735;56.264;43.898;2022-10-16T00:12:33;101969.94;;;3.85;73.48
70323;BME280;57735;56.264;43.898;2022-10-16T00:15:05;101976.13;;;3.84;73.37
70323;BME280;57735;56.264;43.898;2022-10-16T00:17:36;101973.50;;;3.84;73.80
70323;BME280;57735;56.264;43.898;2022-10-16T00:20:07;101972.63;;;3.83;73.90
70323;BME280;57735;56.264;43.898;2022-10-16T00:22:57;101981.47;;;3.82;74.04
70323;BME280;57735;56.264;43.898;2022-10-16T00:25:29;101979.69;;;3.83;74.26
70323;BME280;57735;56.264;43.898;2022-10-16T00:28:00;101976.13;;;3.84;74.02
70323;BME280;57735;56.264;43.898;2022-10-16T00:30:31;101983.94;;;3.85;74.43
70323;BME280;57735;56.264;43.898;2022-10-16T00:33:02;101988.16;;;3.90;74.20
70323;BME280;57735;56.264;43.898;2022-10-16T00:35:33;101984.66;;;3.89;74.06
70323;BME280;57735;56.264;43.898;2022-10-16T00:38:03;101985.38;;;3.93;74.13
70323;BME280;57735;56.264;43.898;2022-10-16T00:40:34;101989.59;;;3.97;74.13
70323;BME280;57735;56.264;43.898;2022-10-16T00:46:27;101995.41;;;4.03;74.37
70323;BME280;57735;56.264;43.898;2022-10-16T00:49:09;101991.72;;;4.07;74.27
70323;BME280;57735;56.264;43.898;2022-10-16T00:51:44;102003.78;;;4.13;74.17
70323;BME280;57735;56.264;43.898;2022-10-16T00:54:30;101993.88;;;4.18;73.99
70323;BME280;57735;56.264;43.898;2022-10-16T00:57:05;101998.91;;;4.22;73.98
70323;BME280;57735;56.264;43.898;2022-10-16T00:59:37;101992.56;;;4.27;73.73
70323;BME280;57735;56.264;43.898;2022-10-16T01:02:12;101997.69;;;4.30;73.34
70323;BME280;57735;56.264;43.898;2022-10-16T01:04:52;101992.28;;;4.33;73.24
70323;BME280;57735;56.264;43.898;2022-10-16T01:07:45;101994.84;;;4.34;73.08
70323;BME280;57735;56.264;43.898;2022-10-16T01:10:45;101993.81;;;4.37;73.05
70323;BME280;57735;56.264;43.898;2022-10-16T01:13:25;102004.22;;;4.40;72.93
70323;BME280;57735;56.264;43.898;2022-10-16T01:16:13;101996.16;;;4.43;72.80
70323;BME280;57735;56.264;43.898;2022-10-16T01:18:54;101996.94;;;4.45;72.67
70323;BME280;57735;56.264;43.898;2022-10-16T01:21:31;102007.38;;;4.48;72.60
70323;BME280;57735;56.264;43.898;2022-10-16T01:29:40;102003.66;;;4.52;72.51
70323;BME280;57735;56.264;43.898;2022-10-16T01:32:28;101996.47;;;4.54;72.48
70323;BME280;57735;56.264;43.898;2022-10-16T01:35:07;101999.06;;;4.55;72.58
70323;BME280;57735;56.264;43.898;2022-10-16T01:37:57;102007.75;;;4.57;72.52
70323;BME280;57735;56.264;43.898;2022-10-16T01:40:35;102001.56;;;4.59;72.46
70323;BME280;57735;56.264;43.898;2022-10-16T01:43:09;102001.56;;;4.59;72.42
70323;BME280;57735;56.264;43.898;2022-10-16T01:45:41;102001.63;;;4.57;72.47
70323;BME280;57735;56.264;43.898;2022-10-16T01:48:17;101998.13;;;4.56;72.41
70323;BME280;57735;56.264;43.898;2022-10-16T01:50:52;102007.63;;;4.61;72.29
70323;BME280;57735;56.264;43.898;2022-10-16T01:53:25;102004.97;;;4.61;71.96
70323;BME280;57735;56.264;43.898;2022-10-16T01:56:00;102015.53;;;4.61;72.07
70323;BME280;57735;56.264;43.898;2022-10-16T01:58:35;102005.91;;;4.60;72.45
70323;BME280;57735;56.264;43.898;2022-10-16T02:01:10;102009.41;;;4.60;72.24
70323;BME280;57735;56.264;43.898;2022-10-16T02:03:43;102018.03;;;4.64;72.42
70323;BME280;57735;56.264;43.898;2022-10-16T02:06:15;102018.03;;;4.64;72.48
70323;BME280;57735;56.264;43.898;2022-10-16T02:08:46;102017.88;;;4.67;72.36
70323;BME280;57735;56.264;43.898;2022-10-16T02:11:17;102020.28;;;4.71;72.24
70323;BME280;57735;56.264;43.898;2022-10-16T02:14:01;102021.00;;;4.75;72.18
70323;BME280;57735;56.264;43.898;2022-10-16T02:16:38;102016.50;;;4.77;72.19
70323;BME280;57735;56.264;43.898;2022-10-16T02:19:11;102018.19;;;4.78;72.12
70323;BME280;57735;56.264;43.898;2022-10-16T02:22:00;102016.50;;;4.77;71.99
70323;BME280;57735;56.264;43.898;2022-10-16T02:24:45;102022.63;;;4.77;72.29
70323;BME280;57735;56.264;43.898;2022-10-16T02:30:02;102018.19;;;4.78;72.14
70323;BME280;57735;56.264;43.898;2022-10-16T02:32:42;102021.63;;;4.80;72.39
70323;BME280;57735;56.264;43.898;2022-10-16T02:35:17;102027.53;;;4.85;72.25
70323;BME280;57735;56.264;43.898;2022-10-16T02:37:50;102030.94;;;4.87;72.37
70323;BME280;57735;56.264;43.898;2022-10-16T02:40:21;102031.88;;;4.86;72.25
70323;BME280;57735;56.264;43.898;2022-10-16T02:42:54;102031.03;;;4.85;72.36
70323;BME280;57735;56.264;43.898;2022-10-16T02:45:25;102036.16;;;4.88;72.35
70323;BME280;57735;56.264;43.898;2022-10-16T02:47:56;102039.66;;;4.89;72.20
70323;BME280;57735;56.264;43.898;2022-10-16T02:50:27;102044.94;;;4.89;72.38
70323;BME280;57735;56.264;43.898;2022-10-16T02:52:57;102036.06;;;4.90;72.30
70323;BME280;57735;56.264;43.898;2022-10-16T02:55:28;102032.50;;;4.91;72.33
70323;BME280;57735;56.264;43.898;2022-10-16T02:57:59;102030.78;;;4.90;72.37
70323;BME280;57735;56.264;43.898;2022-10-16T03:00:30;102043.06;;;4.91;72.39
70323;BME280;57735;56.264;43.898;2022-10-16T03:03:01;102028.94;;;4.92;72.48
70323;BME280;57735;56.264;43.898;2022-10-16T03:05:32;102045.63;;;4.93;72.77
70323;BME280;57735;56.264;43.898;2022-10-16T03:08:02;102039.44;;;4.94;72.94
70323;BME280;57735;56.264;43.898;2022-10-16T03:10:35;102035.72;;;4.98;72.75
70323;BME280;57735;56.264;43.898;2022-10-16T03:13:06;102037.34;;;5.00;72.62
70323;BME280;57735;56.264;43.898;2022-10-16T03:15:37;102049.63;;;5.01;72.65
70323;BME280;57735;56.264;43.898;2022-10-16T03:18:08;102046.88;;;5.03;72.68
70323;BME280;57735;56.264;43.898;2022-10-16T03:20:39;102044.16;;;5.04;72.56
70323;BME280;57735;56.264;43.898;2022-10-16T03:23:10;102039.72;;;5.05;72.68
70323;BME280;57735;56.264;43.898;2022-10-16T03:25:43;102046.81;;;5.04;72.71
70323;BME280;57735;56.264;43.898;2022-10-16T03:28:14;102042.38;;;5.05;72.45
70323;BME280;57735;56.264;43.898;2022-10-16T03:30:44;102045.88;;;5.05;72.38
70323;BME280;57735;56.264;43.898;2022-10-16T03:33:15;102047.72;;;5.03;72.58
70323;BME280;57735;56.264;43.898;2022-10-16T03:35:51;102047.00;;;5.01;72.71
70323;BME280;57735;56.264;43.898;2022-10-16T03:38:23;102053.03;;;5.03;72.73
70323;BME280;57735;56.264;43.898;2022-10-16T03:40:54;102053.03;;;5.03;72.47
70323;BME280;57735;56.264;43.898;2022-10-16T03:43:24;102051.34;;;5.02;72.47
70323;BME280;57735;56.264;43.898;2022-10-16T03:45:55;102054.06;;;5.01;72.62
70323;BME280;57735;56.264;43.898;2022-10-16T03:48:26;102056.06;;;4.96;72.67
70323;BME280;57735;56.264;43.898;2022-10-16T03:50:59;102052.72;;;4.92;72.92
70323;BME280;57735;56.264;43.898;2022-10-16T03:53:32;102060.72;;;4.90;73.04
70323;BME280;57735;56.264;43.898;2022-10-16T03:56:06;102063.34;;;4.90;72.84
70323;BME280;57735;56.264;43.898;2022-10-16T03:58:39;102066.72;;;4.94;73.06
70323;BME280;57735;56.264;43.898;2022-10-16T04:01:10;102061.34;;;4.96;72.94
70323;BME280;57735;56.264;43.898;2022-10-16T04:03:44;102056.91;;;4.96;73.06
70323;BME280;57735;56.264;43.898;2022-10-16T04:06:14;102064.84;;;4.96;72.90
70323;BME280;57735;56.264;43.898;2022-10-16T04:08:45;102068.19;;;5.00;72.94
70323;BME280;57735;56.264;43.898;2022-10-16T04:11:16;102070.00;;;4.99;72.76
70323;BME280;57735;56.264;43.898;2022-10-16T04:13:47;102072.63;;;4.99;72.89
70323;BME280;57735;56.264;43.898;2022-10-16T04:16:18;102081.50;;;4.98;72.96
70323;BME280;57735;56.264;43.898;2022-10-16T04:18:49;102072.78;;;4.96;72.76
70323;BME280;57735;56.264;43.898;2022-10-16T04:21:19;102071.84;;;4.97;72.84
70323;BME280;57735;56.264;43.898;2022-10-16T04:23:50;102077.91;;;4.99;72.85
70323;BME280;57735;56.264;43.898;2022-10-16T04:26:21;102075.50;;;4.95;72.84
70323;BME280;57735;56.264;43.898;2022-10-16T04:28:52;102074.84;;;4.89;72.67
70323;BME280;57735;56.264;43.898;2022-10-16T04:31:23;102080.53;;;4.82;73.31
70323;BME280;57735;56.264;43.898;2022-10-16T04:33:53;102076.25;;;4.79;73.25
70323;BME280;57735;56.264;43.898;2022-10-16T04:36:24;102086.81;;;4.79;73.28
70323;BME280;57735;56.264;43.898;2022-10-16T04:38:58;102081.47;;;4.81;73.44
70323;BME280;57735;56.264;43.898;2022-10-16T04:41:31;102076.19;;;4.81;73.47
70323;BME280;57735;56.264;43.898;2022-10-16T04:44:02;102077.25;;;4.77;73.64
70323;BME280;57735;56.264;43.898;2022-10-16T04:46:33;102075.59;;;4.74;73.67
70323;BME280;57735;56.264;43.898;2022-10-16T04:49:06;102082.53;;;4.77;73.82
70323;BME280;57735;56.264;43.898;2022-10-16T04:51:37;102074.53;;;4.78;74.00
70323;BME280;57735;56.264;43.898;2022-10-16T04:54:09;102089.53;;;4.78;73.76
70323;BME280;57735;56.264;43.898;2022-10-16T04:56:40;102076.53;;;4.73;73.83
70323;BME280;57735;56.264;43.898;2022-10-16T04:59:17;102087.25;;;4.70;73.78
70323;BME280;57735;56.264;43.898;2022-10-16T05:01:48;102093.63;;;4.66;74.16
70323;BME280;57735;56.264;43.898;2022-10-16T05:04:19;102108.53;;;4.67;74.06
70323;BME280;57735;56.264;43.898;2022-10-16T05:06:50;102109.53;;;4.65;73.74
70323;BME280;57735;56.264;43.898;2022-10-16T05:09:23;102114.81;;;4.65;73.68
70323;BME280;57735;56.264;43.898;2022-10-16T05:11:54;102114.75;;;4.66;73.67
70323;BME280;57735;56.264;43.898;2022-10-16T05:14:25;102106.75;;;4.68;73.69
70323;BME280;57735;56.264;43.898;2022-10-16T05:16:55;102116.16;;;4.73;73.45
70323;BME280;57735;56.264;43.898;2022-10-16T05:19:26;102105.25;;;4.81;73.31
70323;BME280;57735;56.264;43.898;2022-10-16T05:21:57;102111.91;;;4.88;73.23
70323;BME280;57735;56.264;43.898;2022-10-16T05:24:30;102114.06;;;4.99;72.89
70323;BME280;57735;56.264;43.898;2022-10-16T05:27:01;102122.44;;;5.07;72.87
70323;BME280;57735;56.264;43.898;2022-10-16T05:29:31;102115.00;;;5.15;72.73
70323;BME280;57735;56.264;43.898;2022-10-16T05:32:05;102116.25;;;5.25;72.32
70323;BME280;57735;56.264;43.898;2022-10-16T05:34:36;102121.03;;;5.36;71.95
70323;BME280;57735;56.264;43.898;2022-10-16T05:37:07;102113.31;;;5.48;71.65
70323;BME280;57735;56.264;43.898;2022-10-16T05:39:38;102116.94;;;5.63;71.47
70323;BME280;57735;56.264;43.898;2022-10-16T05:42:09;102114.28;;;5.80;70.96
70323;BME280;57735;56.264;43.898;2022-10-16T05:44:40;102108.22;;;5.95;70.53
70323;BME280;57735;56.264;43.898;2022-10-16T05:47:12;102124.75;;;6.16;70.15
70323;BME280;57735;56.264;43.898;2022-10-16T05:49:44;102105.31;;;6.33;69.54
70323;BME280;57735;56.264;43.898;2022-10-16T05:52:15;102110.84;;;6.44;69.33
70323;BME280;57735;56.264;43.898;2022-10-16T05:54:46;102111.00;;;6.57;68.74
70323;BME280;57735;56.264;43.898;2022-10-16T05:57:16;102108.81;;;6.65;68.45
70323;BME280;57735;56.264;43.898;2022-10-16T05:59:47;102113.50;;;6.76;67.93
70323;BME280;57735;56.264;43.898;2022-10-16T06:02:18;102109.88;;;6.92;67.89
70323;BME280;57735;56.264;43.898;2022-10-16T06:04:51;102112.59;;;7.07;66.95
70323;BME280;57735;56.264;43.898;2022-10-16T06:07:24;102119.00;;;7.18;66.24
70323;BME280;57735;56.264;43.898;2022-10-16T06:09:54;102111.78;;;7.36;66.19
70323;BME280;57735;56.264;43.898;2022-10-16T06:12:26;102113.22;;;7.56;65.68
70323;BME280;57735;56.264;43.898;2022-10-16T06:14:59;102122.09;;;7.70;65.27
70323;BME280;57735;56.264;43.898;2022-10-16T06:17:30;102117.34;;;7.76;65.08
70323;BME280;57735;56.264;43.898;2022-10-16T06:20:04;102132.50;;;7.88;65.07
70323;BME280;57735;56.264;43.898;2022-10-16T06:22:35;102120.66;;;7.93;64.46
70323;BME280;57735;56.264;43.898;2022-10-16T06:25:07;102125.72;;;7.98;64.74
70323;BME280;57735;56.264;43.898;2022-10-16T06:27:40;102133.59;;;7.99;64.17
70323;BME280;57735;56.264;43.898;2022-10-16T06:30:11;102119.28;;;8.02;64.36
70323;BME280;57735;56.264;43.898;2022-10-16T06:32:42;102129.78;;;8.03;64.46
70323;BME280;57735;56.264;43.898;2022-10-16T06:35:13;102133.50;;;8.01;63.98
70323;BME280;57735;56.264;43.898;2022-10-16T06:37:48;102125.97;;;7.93;64.28
70323;BME280;57735;56.264;43.898;2022-10-16T06:40:21;102125.97;;;7.93;64.22
70323;BME280;57735;56.264;43.898;2022-10-16T06:42:54;102125.81;;;7.96;64.42
70323;BME280;57735;56.264;43.898;2022-10-16T06:45:25;102127.22;;;8.02;64.53
70323;BME280;57735;56.264;43.898;2022-10-16T06:47:56;102131.28;;;8.07;64.59
70323;BME280;57735;56.264;43.898;2022-10-16T06:50:27;102140.03;;;8.10;64.08
70323;BME280;57735;56.264;43.898;2022-10-16T06:52:57;102127.31;;;8.15;64.02
70323;BME280;57735;56.264;43.898;2022-10-16T06:55:28;102133.59;;;8.14;63.84
70323;BME280;57735;56.264;43.898;2022-10-16T06:57:59;102133.31;;;8.18;63.79
70323;BME280;57735;56.264;43.898;2022-10-16T07:00:30;102133.22;;;8.20;64.06
70323;BME280;57735;56.264;43.898;2022-10-16T07:03:00;102137.38;;;8.24;63.64
70323;BME280;57735;56.264;43.898;2022-10-16T07:05:31;102129.81;;;8.32;63.75
70323;BME280;57735;56.264;43.898;2022-10-16T07:08:04;102128.38;;;8.40;63.47
70323;BME280;57735;56.264;43.898;2022-10-16T07:10:36;102132.25;;;8.49;63.20
70323;BME280;57735;56.264;43.898;2022-10-16T07:13:06;102129.09;;;8.57;63.03
70323;BME280;57735;56.264;43.898;2022-10-16T07:15:45;102119.81;;;8.64;62.91
70323;BME280;57735;56.264;43.898;2022-10-16T07:18:16;102120.09;;;8.59;62.50
70323;BME280;57735;56.264;43.898;2022-10-16T07:20:50;102127.78;;;8.64;62.40
70323;BME280;57735;56.264;43.898;2022-10-16T07:23:23;102132.25;;;8.63;62.22
70323;BME280;57735;56.264;43.898;2022-10-16T07:25:54;102131.38;;;8.63;62.55
70323;BME280;57735;56.264;43.898;2022-10-16T07:28:26;102142.88;;;8.63;62.30
70323;BME280;57735;56.264;43.898;2022-10-16T07:31:03;102146.56;;;8.61;62.64
70323;BME280;57735;56.264;43.898;2022-10-16T07:33:35;102139.81;;;8.55;62.72
70323;BME280;57735;56.264;43.898;2022-10-16T07:36:06;102135.28;;;8.43;62.89
70323;BME280;57735;56.264;43.898;2022-10-16T07:38:39;102135.28;;;8.29;63.79
70323;BME280;57735;56.264;43.898;2022-10-16T07:41:15;102141.47;;;8.15;64.05
70323;BME280;57735;56.264;43.898;2022-10-16T07:43:48;102140.41;;;8.03;64.40
70323;BME280;57735;56.264;43.898;2022-10-16T07:46:22;102141.56;;;8.14;64.38
70323;BME280;57735;56.264;43.898;2022-10-16T07:48:53;102141.06;;;8.21;64.18
70323;BME280;57735;56.264;43.898;2022-10-16T07:51:25;102146.94;;;8.26;63.91
70323;BME280;57735;56.264;43.898;2022-10-16T07:53:56;102152.16;;;8.28;63.92
70323;BME280;57735;56.264;43.898;2022-10-16T07:56:27;102138.56;;;8.34;64.02
70323;BME280;57735;56.264;43.898;2022-10-16T07:58:57;102152.19;;;8.42;63.70
70323;BME280;57735;56.264;43.898;2022-10-16T08:01:28;102143.00;;;8.48;63.65
70323;BME280;57735;56.264;43.898;2022-10-16T08:03:59;102137.16;;;8.55;63.47
70323;BME280;57735;56.264;43.898;2022-10-16T08:06:35;102131.38;;;8.63;63.25
70323;BME280;57735;56.264;43.898;2022-10-16T08:09:08;102127.59;;;8.67;63.12
70323;BME280;57735;56.264;43.898;2022-10-16T08:11:39;102133.44;;;8.72;62.51
70323;BME280;57735;56.264;43.898;2022-10-16T08:14:10;102137.50;;;8.78;62.25
70323;BME280;57735;56.264;43.898;2022-10-16T08:16:41;102131.06;;;8.82;62.28
70323;BME280;57735;56.264;43.898;2022-10-16T08:19:11;102132.47;;;8.87;62.25
70323;BME280;57735;56.264;43.898;2022-10-16T08:21:42;102139.84;;;8.96;62.13
70323;BME280;57735;56.264;43.898;2022-10-16T08:24:13;102131.38;;;9.04;62.06
70323;BME280;57735;56.264;43.898;2022-10-16T08:26:44;102146.22;;;9.21;61.68
70323;BME280;57735;56.264;43.898;2022-10-16T08:29:14;102133.81;;;9.34;61.27
70323;BME280;57735;56.264;43.898;2022-10-16T08:31:48;102126.59;;;9.49;60.42
70323;BME280;57735;56.264;43.898;2022-10-16T08:34:19;102127.47;;;9.62;60.63
70323;BME280;57735;56.264;43.898;2022-10-16T08:36:53;102127.81;;;9.83;60.02
70323;BME280;57735;56.264;43.898;2022-10-16T08:39:23;102125.78;;;9.99;59.07
70323;BME280;57735;56.264;43.898;2022-10-16T08:42:19;102119.78;;;10.08;59.31
70323;BME280;57735;56.264;43.898;2022-10-16T08:50:44;102120.13;;;10.03;58.75
70323;BME280;57735;56.264;43.898;2022-10-16T08:53:24;102118.84;;;9.96;58.84
70323;BME280;57735;56.264;43.898;2022-10-16T08:55:56;102115.53;;;9.93;58.84
70323;BME280;57735;56.264;43.898;2022-10-16T08:58:29;102114.38;;;9.84;59.43
70323;BME280;57735;56.264;43.898;2022-10-16T09:01:03;102119.25;;;9.77;59.33
70323;BME280;57735;56.264;43.898;2022-10-16T09:12:22;102117.22;;;10.06;58.80
70323;BME280;57735;56.264;43.898;2022-10-16T09:17:37;102123.53;;;10.18;58.53
70323;BME280;57735;56.264;43.898;2022-10-16T09:22:55;102112.56;;;10.23;58.51
70323;BME280;57735;56.264;43.898;2022-10-16T09:25:32;102106.69;;;10.30;58.21
70323;BME280;57735;56.264;43.898;2022-10-16T09:28:08;102122.25;;;10.36;58.20
70323;BME280;57735;56.264;43.898;2022-10-16T09:30:39;102112.34;;;10.38;57.98
70323;BME280;57735;56.264;43.898;2022-10-16T09:33:12;102111.03;;;10.44;58.11
70323;BME280;57735;56.264;43.898;2022-10-16T09:35:50;102114.75;;;10.54;58.24
70323;BME280;57735;56.264;43.898;2022-10-16T09:38:30;102114.81;;;10.65;58.14
70323;BME280;57735;56.264;43.898;2022-10-16T09:41:21;102114.88;;;10.76;57.98
70323;BME280;57735;56.264;43.898;2022-10-16T09:43:57;102111.25;;;10.77;56.86
70323;BME280;57735;56.264;43.898;2022-10-16T09:46:36;102120.84;;;10.80;57.01
70323;BME280;57735;56.264;43.898;2022-10-16T09:49:26;102123.19;;;10.84;57.03
70323;BME280;57735;56.264;43.898;2022-10-16T09:52:12;102118.47;;;10.88;57.34
70323;BME280;57735;56.264;43.898;2022-10-16T09:54:58;102116.31;;;10.93;57.16
70323;BME280;57735;56.264;43.898;2022-10-16T09:57:33;102115.44;;;10.93;57.35
70323;BME280;57735;56.264;43.898;2022-10-16T10:00:08;102115.34;;;10.94;57.48
70323;BME280;57735;56.264;43.898;2022-10-16T10:02:39;102115.44;;;10.93;57.56
70323;BME280;57735;56.264;43.898;2022-10-16T10:05:28;102115.44;;;10.93;57.90
70323;BME280;57735;56.264;43.898;2022-10-16T10:08:02;102118.88;;;10.95;58.32
70323;BME280;57735;56.264;43.898;2022-10-16T10:10:41;102114.28;;;10.97;58.11
70323;BME280;57735;56.264;43.898;2022-10-16T10:13:20;102100.94;;;10.97;58.00
70323;BME280;57735;56.264;43.898;2022-10-16T10:15:52;102111.38;;;11.00;57.87
70323;BME280;57735;56.264;43.898;2022-10-16T10:18:23;102104.00;;;11.03;57.80
70323;BME280;57735;56.264;43.898;2022-10-16T10:21:02;102099.03;;;11.10;57.25
70323;BME280;57735;56.264;43.898;2022-10-16T10:23:33;102096.56;;;11.19;55.23
70323;BME280;57735;56.264;43.898;2022-10-16T10:26:20;102100.22;;;11.30;53.65
70323;BME280;57735;56.264;43.898;2022-10-16T10:29:09;102098.69;;;11.38;53.06
70323;BME280;57735;56.264;43.898;2022-10-16T10:37:33;102094.06;;;11.86;51.44
70323;BME280;57735;56.264;43.898;2022-10-16T10:40:30;102092.84;;;12.13;51.69
70323;BME280;57735;56.264;43.898;2022-10-16T10:46:39;102098.31;;;12.34;50.60
70323;BME280;57735;56.264;43.898;2022-10-16T10:49:25;102098.31;;;12.34;50.13
70323;BME280;57735;56.264;43.898;2022-10-16T10:55:16;102091.50;;;12.30;50.14
70323;BME280;57735;56.264;43.898;2022-10-16T11:06:26;102105.88;;;12.17;48.62
70323;BME280;57735;56.264;43.898;2022-10-16T11:09:13;102102.22;;;12.18;48.36
70323;BME280;57735;56.264;43.898;2022-10-16T11:17:04;102101.84;;;12.01;48.39
70323;BME280;57735;56.264;43.898;2022-10-16T11:19:45;102103.56;;;12.02;48.15
70323;BME280;57735;56.264;43.898;2022-10-16T11:22:27;102107.94;;;12.03;48.28
70323;BME280;57735;56.264;43.898;2022-10-16T11:28:04;102110.72;;;12.01;47.30
70323;BME280;57735;56.264;43.898;2022-10-16T11:30:46;102105.72;;;11.97;47.83
70323;BME280;57735;56.264;43.898;2022-10-16T11:33:28;102109.25;;;11.97;47.95
70323;BME280;57735;56.264;43.898;2022-10-16T11:46:46;102108.88;;;11.79;47.65
70323;BME280;57735;56.264;43.898;2022-10-16T11:49:21;102107.75;;;11.71;47.93
70323;BME280;57735;56.264;43.898;2022-10-16T11:52:13;102101.03;;;11.65;48.11
70323;BME280;57735;56.264;43.898;2022-10-16T11:57:57;102108.44;;;11.62;48.85
70323;BME280;57735;56.264;43.898;2022-10-16T12:00:43;102105.66;;;11.63;48.80
70323;BME280;57735;56.264;43.898;2022-10-16T12:03:28;102101.56;;;11.70;48.97
70323;BME280;57735;56.264;43.898;2022-10-16T12:08:43;102103.84;;;11.75;49.17
70323;BME280;57735;56.264;43.898;2022-10-16T12:11:35;102102.78;;;11.77;49.29
70323;BME280;57735;56.264;43.898;2022-10-16T12:19:26;102091.84;;;11.69;49.21
70323;BME280;57735;56.264;43.898;2022-10-16T12:22:00;102086.09;;;11.63;49.56
70323;BME280;57735;56.264;43.898;2022-10-16T12:24:38;102094.34;;;11.60;49.28
70323;BME280;57735;56.264;43.898;2022-10-16T12:30:00;102091.38;;;11.40;50.24
70323;BME280;57735;56.264;43.898;2022-10-16T12:32:36;102090.91;;;11.35;50.16
70323;BME280;57735;56.264;43.898;2022-10-16T12:35:21;102092.31;;;11.28;50.37
70323;BME280;57735;56.264;43.898;2022-10-16T12:37:53;102085.66;;;11.23;50.37
70323;BME280;57735;56.264;43.898;2022-10-16T12:40:33;102094.09;;;11.16;50.64
70323;BME280;57735;56.264;43.898;2022-10-16T12:43:39;102088.25;;;11.11;50.40
70323;BME280;57735;56.264;43.898;2022-10-16T12:48:45;102088.97;;;11.02;50.77
70323;BME280;57735;56.264;43.898;2022-10-16T12:51:44;102097.06;;;11.01;50.70
70323;BME280;57735;56.264;43.898;2022-10-16T12:59:35;102099.22;;;10.96;50.71
70323;BME280;57735;56.264;43.898;2022-10-16T13:08:33;102084.88;;;10.86;51.10
70323;BME280;57735;56.264;43.898;2022-10-16T13:11:34;102086.06;;;10.81;51.55
70323;BME280;57735;56.264;43.898;2022-10-16T13:17:30;102089.00;;;10.66;52.12
70323;BME280;57735;56.264;43.898;2022-10-16T13:28:16;102096.00;;;10.43;52.83
70323;BME280;57735;56.264;43.898;2022-10-16T13:30:57;102101.03;;;10.35;53.30
70323;BME280;57735;56.264;43.898;2022-10-16T13:33:37;102097.94;;;10.28;53.59
70323;BME280;57735;56.264;43.898;2022-10-16T13:36:19;102108.22;;;10.22;53.60
70323;BME280;57735;56.264;43.898;2022-10-16T13:41:40;102109.03;;;10.09;54.22
70323;BME280;57735;56.264;43.898;2022-10-16T13:44:18;102105.00;;;10.04;54.53
70323;BME280;57735;56.264;43.898;2022-10-16T13:47:00;102102.44;;;10.02;54.60
70323;BME280;57735;56.264;43.898;2022-10-16T13:49:31;102102.66;;;9.99;54.63
70323;BME280;57735;56.264;43.898;2022-10-16T13:52:02;102110.09;;;9.94;54.77
70323;BME280;57735;56.264;43.898;2022-10-16T13:54:33;102110.31;;;9.91;54.92
70323;BME280;57735;56.264;43.898;2022-10-16T13:57:07;102106.59;;;9.81;55.43
70323;BME280;57735;56.264;43.898;2022-10-16T13:59:41;102112.34;;;9.75;55.66
70323;BME280;57735;56.264;43.898;2022-10-16T14:02:26;102106.91;;;9.64;56.01
70323;BME280;57735;56.264;43.898;2022-10-16T14:04:58;102112.88;;;9.55;56.28
70323;BME280;57735;56.264;43.898;2022-10-16T14:07:34;102118.81;;;9.45;56.73
70323;BME280;57735;56.264;43.898;2022-10-16T14:10:14;102120.41;;;9.35;57.28
70323;BME280;57735;56.264;43.898;2022-10-16T14:13:03;102128.13;;;9.26;57.45
70323;BME280;57735;56.264;43.898;2022-10-16T14:15:36;102118.84;;;9.19;57.97
70323;BME280;57735;56.264;43.898;2022-10-16T14:18:20;102119.34;;;9.11;58.50
70323;BME280;57735;56.264;43.898;2022-10-16T14:20:52;102117.09;;;9.05;59.42
70323;BME280;57735;56.264;43.898;2022-10-16T14:23:30;102114.09;;;8.97;60.20
70323;BME280;57735;56.264;43.898;2022-10-16T14:28:44;102125.94;;;8.79;61.07
70323;BME280;57735;56.264;43.898;2022-10-16T14:33:49;102126.34;;;8.58;62.03
70323;BME280;57735;56.264;43.898;2022-10-16T14:36:25;102128.84;;;8.47;62.53
70323;BME280;57735;56.264;43.898;2022-10-16T14:39:04;102122.19;;;8.40;63.06
70323;BME280;57735;56.264;43.898;2022-10-16T14:41:44;102120.63;;;8.37;63.33
70323;BME280;57735;56.264;43.898;2022-10-16T14:44:18;102117.44;;;8.31;63.37
70323;BME280;57735;56.264;43.898;2022-10-16T14:46:49;102121.25;;;8.27;63.79
70323;BME280;57735;56.264;43.898;2022-10-16T14:49:22;102126.97;;;8.21;63.91
70323;BME280;57735;56.264;43.898;2022-10-16T14:51:54;102127.13;;;8.18;63.94
70323;BME280;57735;56.264;43.898;2022-10-16T14:54:25;102129.13;;;8.14;64.21
70323;BME280;57735;56.264;43.898;2022-10-16T14:56:57;102126.75;;;8.10;64.11
70323;BME280;57735;56.264;43.898;2022-10-16T14:59:42;102130.66;;;8.04;64.29
70323;BME280;57735;56.264;43.898;2022-10-16T15:02:33;102131.03;;;7.98;64.35
70323;BME280;57735;56.264;43.898;2022-10-16T15:05:18;102124.19;;;7.94;64.42
70323;BME280;57735;56.264;43.898;2022-10-16T15:07:49;102125.41;;;7.88;64.74
70323;BME280;57735;56.264;43.898;2022-10-16T15:10:25;102131.78;;;7.86;64.92
70323;BME280;57735;56.264;43.898;2022-10-16T15:12:56;102122.38;;;7.80;64.90
70323;BME280;57735;56.264;43.898;2022-10-16T15:15:39;102127.00;;;7.77;65.13
70323;BME280;57735;56.264;43.898;2022-10-16T15:18:11;102131.63;;;7.73;65.32
70323;BME280;57735;56.264;43.898;2022-10-16T15:20:42;102127.47;;;7.69;65.39
70323;BME280;57735;56.264;43.898;2022-10-16T15:23:20;102130.31;;;7.66;65.52
70323;BME280;57735;56.264;43.898;2022-10-16T15:25:55;102123.47;;;7.62;65.88
70323;BME280;57735;56.264;43.898;2022-10-16T15:28:26;102127.25;;;7.58;65.84